createdAt,value
2023-05-12T00:02:24.230Z,90.10
2023-05-12T00:04:51.514Z,90.10
2023-05-12T00:07:18.746Z,90.10
2023-05-12T00:09:45.928Z,90.10
2023-05-12T00:12:13.152Z,90.20
2023-05-12T00:14:40.697Z,90.20
2023-05-12T00:17:07.981Z,90.20
2023-05-12T00:19:36.366Z,90.20
2023-05-12T00:22:03.608Z,90.10
2023-05-12T00:24:30.801Z,90.30
2023-05-12T00:26:58.021Z,90.20
2023-05-12T00:29:25.377Z,90.20
2023-05-12T00:31:54.821Z,90.20
2023-05-12T00:34:22.089Z,90.20
2023-05-12T00:36:49.303Z,90.30
2023-05-12T00:39:16.469Z,90.20
2023-05-12T00:41:44.435Z,90.30
2023-05-12T00:44:11.692Z,90.30
2023-05-12T00:46:39.183Z,90.00
2023-05-12T00:49:06.696Z,90.30
2023-05-12T00:51:34.077Z,90.30
2023-05-12T00:54:02.625Z,90.30
2023-05-12T00:56:29.910Z,90.30
2023-05-12T00:58:57.229Z,90.30
2023-05-12T01:01:24.653Z,90.30
2023-05-12T01:03:54.350Z,90.30
2023-05-12T01:06:48.534Z,90.30
2023-05-12T01:09:17.378Z,90.50
2023-05-12T01:11:45.157Z,90.50
2023-05-12T01:14:12.584Z,90.50
2023-05-12T01:16:45.966Z,90.50
2023-05-12T01:19:36.693Z,90.50
2023-05-12T01:22:04.695Z,90.50
2023-05-12T01:24:34.269Z,90.50
2023-05-12T01:27:02.734Z,90.50
2023-05-12T01:29:30.532Z,90.50
2023-05-12T01:31:58.437Z,90.50
2023-05-12T01:34:30.877Z,90.60
2023-05-12T01:36:58.116Z,90.60
2023-05-12T01:39:25.362Z,90.60
2023-05-12T01:41:52.578Z,90.60
2023-05-12T01:44:21.305Z,90.60
2023-05-12T01:46:49.581Z,90.60
2023-05-12T01:49:16.947Z,90.60
2023-05-12T01:51:44.202Z,90.60
2023-05-12T01:54:11.472Z,90.60
2023-05-12T01:56:39.351Z,90.70
2023-05-12T01:59:06.780Z,90.80
2023-05-12T02:01:34.196Z,90.70
2023-05-12T02:04:03.851Z,90.60
2023-05-12T02:06:32.549Z,90.70
2023-05-12T02:08:59.812Z,90.60
2023-05-12T02:11:27.057Z,90.70
2023-05-12T02:13:54.712Z,90.70
2023-05-12T02:16:22.716Z,90.80
2023-05-12T02:18:50.065Z,90.80
2023-05-12T02:21:17.382Z,90.90
2023-05-12T02:23:44.707Z,91.00
2023-05-12T02:26:12.848Z,91.00
2023-05-12T02:28:40.098Z,91.00
2023-05-12T02:31:07.467Z,91.10
2023-05-12T02:33:35.392Z,91.10
2023-05-12T02:36:02.975Z,91.10
2023-05-12T02:38:30.211Z,91.10
2023-05-12T02:40:57.518Z,91.20
2023-05-12T02:43:25.360Z,91.20
2023-05-12T02:45:54.725Z,91.20
2023-05-12T02:48:21.953Z,91.20
2023-05-12T02:50:49.175Z,91.20
2023-05-12T02:53:16.544Z,91.10
2023-05-12T02:55:43.819Z,91.20
2023-05-12T02:58:11.146Z,91.20
2023-05-12T03:00:38.417Z,91.20
2023-05-12T03:03:06.127Z,91.10
2023-05-12T03:05:33.448Z,91.20
2023-05-12T03:08:00.817Z,91.20
2023-05-12T03:10:28.150Z,91.30
2023-05-12T03:12:55.352Z,91.30
2023-05-12T03:15:22.566Z,91.40
2023-05-12T03:17:49.865Z,91.50
2023-05-12T03:20:19.035Z,91.30
2023-05-12T03:22:46.467Z,91.40
2023-05-12T03:25:14.430Z,91.40
2023-05-12T03:27:41.709Z,91.50
2023-05-12T03:30:09.689Z,91.50
2023-05-12T03:32:39.343Z,91.50
2023-05-12T03:35:09.506Z,91.50
2023-05-12T03:37:37.382Z,91.60
2023-05-12T03:40:06.217Z,91.60
2023-05-12T03:42:33.407Z,91.50
2023-05-12T03:45:00.637Z,91.50
2023-05-12T03:47:29.182Z,91.40
2023-05-12T03:49:57.393Z,91.60
2023-05-12T03:52:27.302Z,91.50
2023-05-12T03:54:54.547Z,91.50
2023-05-12T03:57:21.734Z,91.60
2023-05-12T03:59:48.924Z,91.60
2023-05-12T04:02:16.217Z,91.40
2023-05-12T04:04:43.835Z,91.40
2023-05-12T04:07:11.534Z,91.30
2023-05-12T04:09:38.770Z,91.30
2023-05-12T04:12:06.510Z,91.30
2023-05-12T04:14:42.404Z,91.30
2023-05-12T04:17:11.017Z,91.30
2023-05-12T04:19:38.172Z,91.30
2023-05-12T04:22:05.540Z,91.30
2023-05-12T04:24:32.750Z,91.40
2023-05-12T04:27:00.501Z,91.40
2023-05-12T04:29:27.776Z,91.20
2023-05-12T04:31:56.138Z,91.20
2023-05-12T04:34:23.497Z,91.20
2023-05-12T04:36:51.558Z,91.20
2023-05-12T04:39:19.602Z,91.10
2023-05-12T04:41:46.878Z,91.10
2023-05-12T04:44:14.405Z,91.10
2023-05-12T04:46:41.782Z,91.10
2023-05-12T04:49:08.963Z,91.10
2023-05-12T04:51:41.991Z,91.10
2023-05-12T04:54:10.467Z,91.20
2023-05-12T04:56:37.979Z,91.20
2023-05-12T04:59:06.220Z,91.10
2023-05-12T05:01:33.487Z,91.10
2023-05-12T05:04:01.028Z,91.10
2023-05-12T05:06:28.889Z,91.10
2023-05-12T05:08:56.209Z,91.00
2023-05-12T05:11:23.928Z,91.10
2023-05-12T05:13:51.704Z,91.10
2023-05-12T05:16:19.023Z,91.20
2023-05-12T05:18:46.851Z,91.00
2023-05-12T05:21:14.618Z,90.90
2023-05-12T05:23:42.696Z,90.80
2023-05-12T05:26:10.477Z,90.80
2023-05-12T05:28:39.916Z,91.30
2023-05-12T05:31:07.780Z,90.70
2023-05-12T05:33:35.403Z,90.70
2023-05-12T05:36:03.456Z,90.80
2023-05-12T05:38:32.410Z,90.90
2023-05-12T05:40:59.592Z,90.90
2023-05-12T05:43:28.165Z,90.80
2023-05-12T05:45:57.057Z,90.90
2023-05-12T05:48:25.435Z,90.80
2023-05-12T05:50:53.791Z,90.70
2023-05-12T05:53:22.961Z,90.70
2023-05-12T05:55:50.352Z,90.70
2023-05-12T05:58:17.563Z,90.70
2023-05-12T06:00:46.441Z,90.90
2023-05-12T06:03:13.867Z,90.80
2023-05-12T06:05:43.031Z,90.80
2023-05-12T06:08:13.253Z,90.70
2023-05-12T06:10:41.179Z,90.90
2023-05-12T06:13:08.476Z,90.70
2023-05-12T06:15:36.002Z,91.00
2023-05-12T06:18:03.360Z,90.60
2023-05-12T06:20:32.194Z,90.40
2023-05-12T06:22:59.453Z,90.50
2023-05-12T06:25:26.958Z,90.20
2023-05-12T06:27:54.167Z,90.10
2023-05-12T06:30:21.530Z,90.30
2023-05-12T06:32:49.034Z,90.30
2023-05-12T06:35:16.885Z,90.10
2023-05-12T06:37:49.316Z,90.10
2023-05-12T06:40:17.184Z,90.10
2023-05-12T06:42:44.968Z,90.20
2023-05-12T06:45:20.021Z,90.00
2023-05-12T06:47:47.567Z,90.00
2023-05-12T06:50:16.876Z,89.80
2023-05-12T06:52:44.724Z,88.90
2023-05-12T06:55:11.976Z,88.40
2023-05-12T06:57:39.220Z,88.40
2023-05-12T07:00:07.554Z,88.30
2023-05-12T07:02:34.973Z,88.50
2023-05-12T07:05:02.188Z,88.10
2023-05-12T07:07:29.389Z,87.90
2023-05-12T07:09:57.080Z,87.70
2023-05-12T07:12:24.355Z,88.10
2023-05-12T07:14:51.582Z,87.40
2023-05-12T07:17:18.735Z,87.00
2023-05-12T07:19:45.920Z,87.10
2023-05-12T07:22:13.692Z,86.80
2023-05-12T07:24:41.560Z,86.70
2023-05-12T07:27:08.915Z,86.70
2023-05-12T07:29:36.110Z,86.30
2023-05-12T07:32:03.522Z,86.10
2023-05-12T07:34:33.044Z,85.90
2023-05-12T07:37:04.021Z,86.00
2023-05-12T07:39:32.305Z,85.60
2023-05-12T07:41:59.567Z,85.40
2023-05-12T07:44:27.939Z,85.30
2023-05-12T07:46:55.317Z,84.10
2023-05-12T07:49:23.258Z,84.50
2023-05-12T07:51:50.615Z,83.90
2023-05-12T07:54:17.812Z,83.50
2023-05-12T07:56:45.097Z,82.50
2023-05-12T07:59:14.206Z,83.00
2023-05-12T08:01:41.792Z,83.00
2023-05-12T08:04:09.482Z,82.50
2023-05-12T08:06:36.758Z,81.70
2023-05-12T08:09:04.094Z,81.50
2023-05-12T08:11:31.445Z,81.80
2023-05-12T08:13:58.644Z,81.20
2023-05-12T08:16:26.045Z,80.00
2023-05-12T08:18:53.381Z,79.80
2023-05-12T08:21:20.984Z,79.40
2023-05-12T08:23:48.224Z,78.70
2023-05-12T08:26:15.590Z,78.80
2023-05-12T08:28:42.796Z,78.60
2023-05-12T08:31:10.164Z,78.20
2023-05-12T08:33:37.443Z,78.30
2023-05-12T08:36:04.928Z,77.90
2023-05-12T08:38:32.741Z,78.00
2023-05-12T08:41:16.242Z,78.10
2023-05-12T08:43:50.696Z,77.90
2023-05-12T08:46:18.265Z,77.70
2023-05-12T08:48:46.906Z,77.10
2023-05-12T08:51:14.487Z,77.70
2023-05-12T08:53:42.574Z,77.60
2023-05-12T08:58:46.007Z,78.60
2023-05-12T09:01:14.761Z,78.80
2023-05-12T09:03:43.332Z,79.50
2023-05-12T09:06:11.590Z,77.60
2023-05-12T09:08:40.412Z,77.40
2023-05-12T09:11:12.137Z,75.80
2023-05-12T09:13:55.338Z,73.70
2023-05-12T09:16:25.151Z,70.60
2023-05-12T09:18:57.251Z,68.00
2023-05-12T09:21:26.468Z,64.80
2023-05-12T09:24:01.331Z,60.50
2023-05-12T09:26:28.930Z,56.00
2023-05-12T09:29:08.127Z,56.50
2023-05-12T09:31:35.836Z,60.20
2023-05-12T09:34:08.076Z,61.70
2023-05-12T09:36:35.880Z,63.40
2023-05-12T09:39:08.073Z,64.70
2023-05-12T09:41:39.370Z,66.80
2023-05-12T09:44:08.471Z,68.20
2023-05-12T09:46:36.842Z,68.70
2023-05-12T09:49:04.021Z,69.30
2023-05-12T09:51:31.424Z,70.20
2023-05-12T09:53:58.776Z,71.50
2023-05-12T09:56:29.440Z,72.20
2023-05-12T09:58:57.470Z,73.60
2023-05-12T10:01:25.742Z,74.10
2023-05-12T10:03:57.355Z,73.80
2023-05-12T10:06:28.108Z,72.90
2023-05-12T10:09:19.786Z,72.50
2023-05-12T10:11:53.760Z,72.20
2023-05-12T10:14:22.870Z,70.20
2023-05-12T10:16:51.164Z,66.70
2023-05-12T10:19:20.057Z,65.20
2023-05-12T10:21:50.993Z,60.60
2023-05-12T10:24:18.467Z,59.00
2023-05-12T10:26:45.676Z,58.50
2023-05-12T10:29:13.619Z,57.20
2023-05-12T10:31:41.286Z,56.80
2023-05-12T10:34:18.056Z,56.00
2023-05-12T10:36:50.146Z,55.80
2023-05-12T10:39:17.540Z,51.70
2023-05-12T10:41:44.750Z,51.00
2023-05-12T10:44:12.189Z,49.60
2023-05-12T10:46:39.559Z,47.00
2023-05-12T10:49:06.783Z,46.60
2023-05-12T10:51:35.013Z,45.00
2023-05-12T10:54:07.672Z,45.40
2023-05-12T10:56:40.973Z,45.00
2023-05-12T10:59:17.726Z,46.60
2023-05-12T11:02:03.660Z,45.40
2023-05-12T11:04:46.354Z,49.70
2023-05-12T11:07:16.501Z,44.60
2023-05-12T11:09:55.418Z,44.90
2023-05-12T11:12:26.752Z,45.80
2023-05-12T11:14:54.437Z,50.00
2023-05-12T11:17:24.518Z,46.00
2023-05-12T11:19:52.665Z,43.40
2023-05-12T11:22:21.865Z,41.80
2023-05-12T11:24:50.571Z,41.40
2023-05-12T11:27:19.850Z,39.60
2023-05-12T11:29:57.730Z,39.60
2023-05-12T11:32:25.003Z,40.00
2023-05-12T11:34:52.672Z,37.10
2023-05-12T11:37:21.246Z,36.70
2023-05-12T11:39:48.699Z,37.20
2023-05-12T11:42:19.840Z,37.80
2023-05-12T11:44:49.879Z,37.50
2023-05-12T11:47:19.275Z,39.70
2023-05-12T11:49:54.903Z,41.90
2023-05-12T11:52:24.058Z,48.60
2023-05-12T11:54:54.649Z,44.60
2023-05-12T11:57:29.449Z,44.50
2023-05-12T11:59:58.441Z,45.60
2023-05-12T12:02:26.032Z,44.20
2023-05-12T12:04:53.597Z,43.70
2023-05-12T12:07:31.746Z,45.00
2023-05-12T12:10:10.081Z,47.00
2023-05-12T12:12:37.265Z,45.40
2023-05-12T12:15:05.226Z,47.00
2023-05-12T12:17:32.824Z,50.20
2023-05-12T12:20:02.708Z,51.50
2023-05-12T12:22:34.065Z,51.10
2023-05-12T12:25:02.329Z,49.30
2023-05-12T12:27:29.776Z,47.00
2023-05-12T12:29:56.980Z,50.80
2023-05-12T12:32:24.328Z,54.00
2023-05-12T12:34:51.949Z,53.40
2023-05-12T12:37:19.147Z,48.00
2023-05-12T12:39:47.687Z,47.10
2023-05-12T12:42:15.608Z,43.40
2023-05-12T12:44:43.871Z,46.40
2023-05-12T12:47:11.446Z,43.60
2023-05-12T12:49:38.880Z,45.00
2023-05-12T12:52:06.465Z,44.30
2023-05-12T12:54:33.990Z,42.40
2023-05-12T12:57:01.412Z,41.90
2023-05-12T12:59:28.652Z,42.90
2023-05-12T13:01:59.887Z,43.80
2023-05-12T13:04:27.258Z,45.10
2023-05-12T13:06:54.494Z,44.40
2023-05-12T13:09:22.968Z,44.40
2023-05-12T13:11:50.423Z,44.90
2023-05-12T13:14:17.737Z,45.40
2023-05-12T13:16:45.831Z,45.10
2023-05-12T13:19:13.667Z,46.60
2023-05-12T13:21:40.890Z,46.80
2023-05-12T13:24:08.365Z,47.40
2023-05-12T13:26:35.763Z,47.30
2023-05-12T13:29:04.194Z,47.00
2023-05-12T13:31:31.423Z,46.50
2023-05-12T13:33:58.663Z,49.00
2023-05-12T13:36:26.793Z,49.60
2023-05-12T13:38:53.968Z,48.50
2023-05-12T13:41:21.153Z,47.10
2023-05-12T13:43:48.414Z,48.10
2023-05-12T13:46:15.913Z,48.10
2023-05-12T13:48:43.176Z,47.00
2023-05-12T13:51:10.581Z,48.70
2023-05-12T13:53:39.491Z,50.10
2023-05-12T13:56:16.498Z,52.60
2023-05-12T13:58:44.558Z,52.70
2023-05-12T14:01:12.183Z,50.10
2023-05-12T14:03:40.419Z,48.60
2023-05-12T14:06:07.975Z,49.70
2023-05-12T14:08:35.202Z,48.40
2023-05-12T14:11:02.442Z,47.50
2023-05-12T14:13:29.703Z,46.60
2023-05-12T14:15:57.403Z,46.70
2023-05-12T14:18:25.079Z,47.80
2023-05-12T14:20:52.816Z,46.70
2023-05-12T14:23:20.104Z,47.00
2023-05-12T14:25:47.348Z,46.00
2023-05-12T14:28:14.681Z,45.10
2023-05-12T14:30:43.383Z,43.40
2023-05-12T14:33:11.349Z,43.70
2023-05-12T14:35:38.630Z,44.90
2023-05-12T14:38:05.937Z,45.30
2023-05-12T14:40:33.198Z,45.40
2023-05-12T14:43:00.904Z,44.30
2023-05-12T14:45:28.764Z,45.30
2023-05-12T14:47:56.170Z,47.30
2023-05-12T14:50:24.053Z,46.20
2023-05-12T14:52:51.353Z,44.70
2023-05-12T14:55:18.736Z,44.60
2023-05-12T14:57:47.209Z,44.20
2023-05-12T15:00:15.978Z,44.20
2023-05-12T15:02:44.904Z,45.20
2023-05-12T15:05:15.454Z,45.90
2023-05-12T15:07:42.705Z,43.90
2023-05-12T15:10:10.670Z,44.80
2023-05-12T15:12:38.036Z,46.00
2023-05-12T15:15:08.455Z,45.20
2023-05-12T15:17:35.850Z,45.40
2023-05-12T15:20:03.911Z,45.60
2023-05-12T15:22:32.171Z,46.00
2023-05-12T15:24:59.810Z,45.80
2023-05-12T15:27:27.492Z,46.10
2023-05-12T15:29:54.712Z,46.90
2023-05-12T15:32:22.126Z,47.00
2023-05-12T15:34:51.916Z,46.80
2023-05-12T15:37:19.142Z,47.10
2023-05-12T15:39:46.431Z,49.30
2023-05-12T15:42:14.683Z,48.50
2023-05-12T15:44:46.734Z,46.90
2023-05-12T15:47:14.123Z,47.40
2023-05-12T15:49:41.365Z,48.10
2023-05-12T15:52:11.395Z,49.90
2023-05-12T15:54:39.081Z,48.80
2023-05-12T15:57:07.065Z,49.90
2023-05-12T15:59:34.649Z,47.60
2023-05-12T16:02:01.950Z,48.30
2023-05-12T16:04:30.191Z,45.70
2023-05-12T16:06:57.391Z,45.20
2023-05-12T16:09:24.767Z,45.30
2023-05-12T16:11:53.074Z,45.80
2023-05-12T16:14:21.880Z,47.90
2023-05-12T16:16:50.209Z,49.60
2023-05-12T16:19:18.171Z,50.70
2023-05-12T16:21:45.551Z,52.80
2023-05-12T16:24:12.935Z,55.70
2023-05-12T16:26:41.171Z,56.60
2023-05-12T16:29:08.430Z,57.90
2023-05-12T16:31:36.420Z,59.40
2023-05-12T16:34:03.611Z,60.60
2023-05-12T16:36:31.990Z,59.60
2023-05-12T16:38:59.603Z,59.60
2023-05-12T16:41:28.693Z,61.20
2023-05-12T16:43:56.388Z,63.90
2023-05-12T16:46:24.321Z,65.00
2023-05-12T16:48:51.652Z,66.10
2023-05-12T16:51:19.026Z,67.10
2023-05-12T16:53:46.323Z,67.30
2023-05-12T16:56:13.544Z,67.20
2023-05-12T16:58:40.978Z,67.80
2023-05-12T17:01:09.347Z,68.60
2023-05-12T17:03:36.971Z,69.30
2023-05-12T17:06:04.414Z,70.00
2023-05-12T17:08:31.809Z,70.10
2023-05-12T17:11:01.437Z,70.30
2023-05-12T17:13:28.727Z,71.10
2023-05-12T17:15:56.302Z,71.00
2023-05-12T17:18:24.823Z,71.20
2023-05-12T17:20:52.211Z,71.30
2023-05-12T17:23:22.253Z,72.50
2023-05-12T17:25:49.597Z,72.80
2023-05-12T17:28:16.771Z,73.80
2023-05-12T17:30:43.980Z,73.50
2023-05-12T17:33:11.401Z,74.60
2023-05-12T17:35:38.733Z,74.70
2023-05-12T17:38:05.956Z,75.30
2023-05-12T17:40:33.469Z,75.90
2023-05-12T17:43:00.692Z,76.00
2023-05-12T17:45:28.215Z,76.30
2023-05-12T17:47:55.536Z,75.90
2023-05-12T17:50:22.859Z,75.90
2023-05-12T17:52:50.128Z,75.50
2023-05-12T17:55:17.500Z,75.80
2023-05-12T17:57:44.796Z,76.00
2023-05-12T18:00:12.691Z,76.20
2023-05-12T18:02:43.001Z,76.60
2023-05-12T18:05:10.670Z,76.50
2023-05-12T18:07:37.899Z,76.70
2023-05-12T18:10:09.386Z,77.30
2023-05-12T18:12:37.691Z,77.40
2023-05-12T18:15:06.347Z,77.80
2023-05-12T18:17:33.769Z,78.10
2023-05-12T18:20:01.101Z,78.10
2023-05-12T18:22:28.267Z,78.60
2023-05-12T18:24:55.905Z,78.60
2023-05-12T18:27:23.146Z,78.20
2023-05-12T18:29:50.430Z,78.10
2023-05-12T18:32:17.599Z,78.20
2023-05-12T18:34:46.427Z,78.00
2023-05-12T18:37:15.526Z,78.00
2023-05-12T18:39:43.206Z,78.00
2023-05-12T18:42:11.241Z,78.10
2023-05-12T18:44:41.123Z,78.10
2023-05-12T18:47:08.960Z,77.90
2023-05-12T18:49:37.472Z,77.60
2023-05-12T18:52:04.966Z,77.10
2023-05-12T18:54:32.199Z,77.20
2023-05-12T18:56:59.464Z,77.10
2023-05-12T18:59:26.817Z,77.00
2023-05-12T19:01:54.001Z,77.10
2023-05-12T19:04:21.981Z,77.00
2023-05-12T19:06:49.415Z,76.10
2023-05-12T19:09:16.837Z,76.90
2023-05-12T19:11:44.329Z,77.00
2023-05-12T19:14:11.946Z,76.90
2023-05-12T19:16:39.842Z,76.10
2023-05-12T19:19:07.398Z,76.80
2023-05-12T19:21:34.926Z,76.70
2023-05-12T19:24:02.229Z,76.70
2023-05-12T19:26:29.667Z,76.60
2023-05-12T19:28:57.068Z,76.30
2023-05-12T19:31:24.371Z,76.00
2023-05-12T19:33:52.266Z,75.70
2023-05-12T19:36:19.616Z,75.60
2023-05-12T19:38:46.970Z,75.50
2023-05-12T19:41:14.248Z,75.30
2023-05-12T19:43:41.605Z,75.20
2023-05-12T19:46:08.945Z,75.10
2023-05-12T19:48:36.280Z,75.10
2023-05-12T19:51:03.761Z,75.00
2023-05-12T19:53:31.107Z,75.00
2023-05-12T19:56:00.651Z,74.80
2023-05-12T19:58:28.049Z,74.80
2023-05-12T20:00:55.839Z,74.70
2023-05-12T20:03:23.453Z,74.60
2023-05-12T20:05:50.898Z,74.50
2023-05-12T20:08:18.150Z,74.40
2023-05-12T20:10:46.124Z,74.40
2023-05-12T20:13:13.465Z,74.40
2023-05-12T20:15:42.298Z,74.20
2023-05-12T20:18:11.211Z,74.10
2023-05-12T20:20:38.570Z,74.00
2023-05-12T20:23:05.854Z,74.00
2023-05-12T20:25:33.244Z,74.00
2023-05-12T20:28:00.588Z,74.00
2023-05-12T20:30:28.134Z,74.00
2023-05-12T20:32:55.671Z,73.90
2023-05-12T20:35:23.389Z,73.90
2023-05-12T20:37:51.234Z,73.90
2023-05-12T20:40:19.707Z,73.90
2023-05-12T20:42:47.822Z,73.80
2023-05-12T20:45:15.968Z,73.90
2023-05-12T20:47:43.199Z,74.00
2023-05-12T20:50:12.504Z,73.90
2023-05-12T20:52:40.914Z,74.00
2023-05-12T20:55:09.626Z,74.00
2023-05-12T20:57:37.761Z,74.10
2023-05-12T21:00:07.465Z,74.10
2023-05-12T21:02:34.704Z,74.10
2023-05-12T21:05:02.349Z,74.10
2023-05-12T21:07:33.274Z,74.20
2023-05-12T21:10:00.805Z,74.10
2023-05-12T21:12:28.121Z,74.10
2023-05-12T21:14:55.642Z,74.20
2023-05-12T21:17:22.896Z,74.10
2023-05-12T21:19:50.119Z,74.10
2023-05-12T21:22:17.626Z,74.10
2023-05-12T21:24:44.880Z,74.00
2023-05-12T21:27:12.096Z,73.90
2023-05-12T21:29:39.289Z,73.80
2023-05-12T21:32:07.012Z,73.80
2023-05-12T21:34:35.762Z,73.80
2023-05-12T21:37:03.073Z,73.80
2023-05-12T21:39:30.369Z,73.80
2023-05-12T21:41:57.565Z,73.90
2023-05-12T21:44:24.794Z,73.90
2023-05-12T21:46:52.042Z,73.90
2023-05-12T21:49:19.279Z,73.80
2023-05-12T21:51:46.630Z,73.80
2023-05-12T21:54:13.841Z,73.80
2023-05-12T21:56:41.000Z,72.80
2023-05-12T21:59:08.209Z,73.60
2023-05-12T22:01:35.450Z,73.60
2023-05-12T22:04:02.909Z,73.60
2023-05-12T22:06:30.223Z,73.60
2023-05-12T22:08:57.506Z,73.60
2023-05-12T22:11:24.951Z,73.60
2023-05-12T22:13:52.183Z,73.40
2023-05-12T22:16:23.630Z,73.40
2023-05-12T22:18:55.989Z,73.20
2023-05-12T22:21:23.363Z,73.00
2023-05-12T22:23:50.662Z,72.80
2023-05-12T22:26:17.830Z,72.70
2023-05-12T22:28:45.023Z,72.30
2023-05-12T22:31:12.276Z,72.10
2023-05-12T22:33:42.195Z,71.80
2023-05-12T22:36:09.784Z,71.60
2023-05-12T22:38:36.959Z,71.40
2023-05-12T22:41:04.168Z,71.20
2023-05-12T22:43:31.382Z,71.10
2023-05-12T22:45:58.762Z,71.10
2023-05-12T22:48:26.739Z,70.90
2023-05-12T22:50:54.704Z,70.70
2023-05-12T22:53:22.026Z,70.50
2023-05-12T22:55:49.251Z,70.40
2023-05-12T22:58:16.498Z,70.10
2023-05-12T23:00:43.703Z,69.90
2023-05-12T23:03:11.351Z,69.80
2023-05-12T23:05:38.572Z,69.70
2023-05-12T23:08:05.924Z,69.50
2023-05-12T23:10:33.196Z,69.50
2023-05-12T23:13:00.358Z,69.40
2023-05-12T23:15:27.585Z,69.50
2023-05-12T23:17:54.791Z,69.50
2023-05-12T23:20:22.277Z,69.50
2023-05-12T23:22:49.663Z,69.50
2023-05-12T23:25:16.957Z,69.50
2023-05-12T23:27:44.160Z,69.30
2023-05-12T23:30:11.769Z,69.40
2023-05-12T23:32:39.173Z,69.30
2023-05-12T23:35:07.886Z,69.20
2023-05-12T23:37:35.097Z,69.20
2023-05-12T23:40:02.378Z,69.10
2023-05-12T23:42:29.797Z,69.20
2023-05-12T23:44:57.052Z,69.50
2023-05-12T23:47:24.288Z,69.70
2023-05-12T23:49:51.564Z,69.70
2023-05-12T23:52:18.723Z,69.80
2023-05-12T23:54:45.984Z,70.00
2023-05-12T23:57:13.215Z,71.10
2023-05-12T23:59:40.681Z,70.20
